sensor_id;sensor_type;location;lat;lon;timestamp;pressure;altitude;pressure_sealevel;temperature;humidity
59519;BME280;46994;54.976;73.404;2022-09-21T00:01:13;100820.63;;;14.20;80.59
59519;BME280;46994;54.976;73.404;2022-09-21T00:03:41;100820.16;;;14.17;80.50
59519;BME280;46994;54.976;73.404;2022-09-21T00:06:11;100839.75;;;14.25;80.71
59519;BME280;46994;54.976;73.404;2022-09-21T00:08:38;100832.41;;;14.19;80.66
59519;BME280;46994;54.976;73.404;2022-09-21T00:11:05;100822.75;;;14.10;80.63
59519;BME280;46994;54.976;73.404;2022-09-21T00:13:33;100846.44;;;14.15;80.73
59519;BME280;46994;54.976;73.404;2022-09-21T00:16:06;100853.88;;;14.13;80.99
59519;BME280;46994;54.976;73.404;2022-09-21T00:18:34;100854.63;;;14.06;81.49
59519;BME280;46994;54.976;73.404;2022-09-21T00:21:05;100825.59;;;13.94;81.22
59519;BME280;46994;54.976;73.404;2022-09-21T00:23:34;100832.22;;;13.91;81.18
59519;BME280;46994;54.976;73.404;2022-09-21T00:26:13;100827.84;;;13.90;81.29
59519;BME280;46994;54.976;73.404;2022-09-21T00:28:40;100825.34;;;13.89;81.32
59519;BME280;46994;54.976;73.404;2022-09-21T00:31:09;100833.44;;;13.89;81.11
59519;BME280;46994;54.976;73.404;2022-09-21T00:33:38;100855.75;;;13.97;81.31
59519;BME280;46994;54.976;73.404;2022-09-21T00:36:08;100840.50;;;13.90;81.28
59519;BME280;46994;54.976;73.404;2022-09-21T00:38:35;100831.25;;;13.84;81.41
59519;BME280;46994;54.976;73.404;2022-09-21T00:41:04;100846.34;;;13.93;81.29
59519;BME280;46994;54.976;73.404;2022-09-21T00:43:35;100843.63;;;13.93;81.17
59519;BME280;46994;54.976;73.404;2022-09-21T00:46:13;100806.00;;;13.70;81.19
59519;BME280;46994;54.976;73.404;2022-09-21T00:48:41;100843.19;;;13.90;81.29
59519;BME280;46994;54.976;73.404;2022-09-21T00:51:08;100844.19;;;13.89;81.57
59519;BME280;46994;54.976;73.404;2022-09-21T00:53:36;100822.59;;;13.74;81.40
59519;BME280;46994;54.976;73.404;2022-09-21T00:56:04;100853.13;;;13.89;81.47
59519;BME280;46994;54.976;73.404;2022-09-21T00:58:39;100848.75;;;13.88;81.55
59519;BME280;46994;54.976;73.404;2022-09-21T01:01:09;100828.38;;;13.71;81.68
59519;BME280;46994;54.976;73.404;2022-09-21T01:03:38;100839.06;;;13.79;81.69
59519;BME280;46994;54.976;73.404;2022-09-21T01:06:05;100826.31;;;13.73;81.63
59519;BME280;46994;54.976;73.404;2022-09-21T01:08:31;100836.09;;;13.74;81.77
59519;BME280;46994;54.976;73.404;2022-09-21T01:14:08;100831.91;;;13.71;81.82
59519;BME280;46994;54.976;73.404;2022-09-21T01:20:23;100850.97;;;13.85;81.90
59519;BME280;46994;54.976;73.404;2022-09-21T01:22:57;100828.00;;;13.74;82.08
59519;BME280;46994;54.976;73.404;2022-09-21T01:30:59;100857.75;;;13.95;81.93
59519;BME280;46994;54.976;73.404;2022-09-21T01:33:43;100852.22;;;13.97;81.73
59519;BME280;46994;54.976;73.404;2022-09-21T01:36:15;100866.78;;;14.02;81.76
59519;BME280;46994;54.976;73.404;2022-09-21T01:38:47;100838.25;;;13.93;81.58
59519;BME280;46994;54.976;73.404;2022-09-21T01:41:21;100841.78;;;13.94;81.52
59519;BME280;46994;54.976;73.404;2022-09-21T01:43:53;100853.81;;;14.06;81.54
59519;BME280;46994;54.976;73.404;2022-09-21T01:46:26;100857.50;;;14.20;81.50
59519;BME280;46994;54.976;73.404;2022-09-21T01:48:59;100844.13;;;14.12;80.92
59519;BME280;46994;54.976;73.404;2022-09-21T01:51:33;100851.94;;;14.21;81.03
59519;BME280;46994;54.976;73.404;2022-09-21T01:54:12;100834.72;;;14.22;80.75
59519;BME280;46994;54.976;73.404;2022-09-21T01:57:33;100872.75;;;14.42;80.68
59519;BME280;46994;54.976;73.404;2022-09-21T01:59:54;100848.41;;;14.35;80.62
59519;BME280;46994;54.976;73.404;2022-09-21T02:02:30;100813.53;;;14.19;80.34
59519;BME280;46994;54.976;73.404;2022-09-21T02:05:01;100845.28;;;14.47;80.19
59519;BME280;46994;54.976;73.404;2022-09-21T02:07:28;100861.03;;;14.64;80.15
59519;BME280;46994;54.976;73.404;2022-09-21T02:09:56;100875.94;;;14.75;79.24
59519;BME280;46994;54.976;73.404;2022-09-21T02:12:23;100855.63;;;14.79;79.21
59519;BME280;46994;54.976;73.404;2022-09-21T02:14:51;100828.13;;;14.69;78.98
59519;BME280;46994;54.976;73.404;2022-09-21T02:17:25;100868.13;;;15.02;78.93
59519;BME280;46994;54.976;73.404;2022-09-21T02:20:07;100870.53;;;15.11;78.67
59519;BME280;46994;54.976;73.404;2022-09-21T02:22:53;100857.94;;;15.18;78.08
59519;BME280;46994;54.976;73.404;2022-09-21T02:25:32;100840.63;;;15.13;77.04
59519;BME280;46994;54.976;73.404;2022-09-21T02:28:20;100838.28;;;15.25;76.71
59519;BME280;46994;54.976;73.404;2022-09-21T02:30:56;100844.00;;;15.36;75.45
59519;BME280;46994;54.976;73.404;2022-09-21T02:33:36;100844.75;;;15.52;74.59
59519;BME280;46994;54.976;73.404;2022-09-21T02:36:27;100865.16;;;15.75;74.24
59519;BME280;46994;54.976;73.404;2022-09-21T02:39:10;100861.72;;;15.88;73.78
59519;BME280;46994;54.976;73.404;2022-09-21T02:41:42;100866.56;;;15.99;73.31
59519;BME280;46994;54.976;73.404;2022-09-21T02:44:29;100858.94;;;16.10;72.21
59519;BME280;46994;54.976;73.404;2022-09-21T02:47:25;100862.38;;;16.25;71.62
59519;BME280;46994;54.976;73.404;2022-09-21T02:54:54;100832.06;;;16.36;69.57
59519;BME280;46994;54.976;73.404;2022-09-21T03:00:46;100832.19;;;16.62;69.11
59519;BME280;46994;54.976;73.404;2022-09-21T03:19:24;100836.16;;;17.34;64.50
59519;BME280;46994;54.976;73.404;2022-09-21T03:21:50;100853.28;;;17.55;63.53
59519;BME280;46994;54.976;73.404;2022-09-21T03:24:17;100842.84;;;17.58;62.74
59519;BME280;46994;54.976;73.404;2022-09-21T03:27:04;100844.09;;;17.69;61.84
59519;BME280;46994;54.976;73.404;2022-09-21T03:29:31;100852.69;;;17.86;61.49
59519;BME280;46994;54.976;73.404;2022-09-21T03:32:17;100847.88;;;17.88;60.90
59519;BME280;46994;54.976;73.404;2022-09-21T03:34:44;100866.63;;;18.09;60.30
59519;BME280;46994;54.976;73.404;2022-09-21T03:37:11;100861.41;;;18.14;59.46
59519;BME280;46994;54.976;73.404;2022-09-21T03:39:38;100842.63;;;18.13;58.94
59519;BME280;46994;54.976;73.404;2022-09-21T03:42:05;100857.59;;;18.28;58.90
59519;BME280;46994;54.976;73.404;2022-09-21T03:44:32;100843.41;;;18.33;58.51
59519;BME280;46994;54.976;73.404;2022-09-21T03:46:58;100861.97;;;18.49;58.40
59519;BME280;46994;54.976;73.404;2022-09-21T03:49:25;100857.53;;;18.55;58.67
59519;BME280;46994;54.976;73.404;2022-09-21T03:51:52;100838.53;;;18.55;58.15
59519;BME280;46994;54.976;73.404;2022-09-21T03:54:19;100855.59;;;18.75;57.86
59519;BME280;46994;54.976;73.404;2022-09-21T03:56:45;100865.78;;;18.86;58.24
59519;BME280;46994;54.976;73.404;2022-09-21T03:59:12;100869.72;;;18.97;58.19
59519;BME280;46994;54.976;73.404;2022-09-21T04:01:39;100838.81;;;18.91;58.19
59519;BME280;46994;54.976;73.404;2022-09-21T04:04:05;100851.50;;;19.04;58.01
59519;BME280;46994;54.976;73.404;2022-09-21T04:06:33;100870.19;;;19.26;58.24
59519;BME280;46994;54.976;73.404;2022-09-21T04:09:01;100845.78;;;19.19;57.70
59519;BME280;46994;54.976;73.404;2022-09-21T04:11:28;100852.34;;;19.36;57.95
59519;BME280;46994;54.976;73.404;2022-09-21T04:13:58;100844.81;;;19.38;56.56
59519;BME280;46994;54.976;73.404;2022-09-21T04:16:25;100825.94;;;19.43;56.76
59519;BME280;46994;54.976;73.404;2022-09-21T04:18:53;100859.84;;;19.72;57.37
59519;BME280;46994;54.976;73.404;2022-09-21T04:21:19;100840.41;;;19.69;57.09
59519;BME280;46994;54.976;73.404;2022-09-21T04:23:48;100855.78;;;19.82;56.92
59519;BME280;46994;54.976;73.404;2022-09-21T04:26:27;100856.50;;;19.95;56.78
59519;BME280;46994;54.976;73.404;2022-09-21T04:28:55;100852.44;;;20.04;56.12
59519;BME280;46994;54.976;73.404;2022-09-21T04:31:23;100848.81;;;20.11;55.75
59519;BME280;46994;54.976;73.404;2022-09-21T04:33:52;100847.47;;;20.20;54.64
59519;BME280;46994;54.976;73.404;2022-09-21T04:36:20;100852.75;;;20.33;54.61
59519;BME280;46994;54.976;73.404;2022-09-21T04:38:48;100855.66;;;20.38;54.95
59519;BME280;46994;54.976;73.404;2022-09-21T04:41:15;100803.69;;;20.21;54.43
59519;BME280;46994;54.976;73.404;2022-09-21T04:43:52;100850.84;;;20.58;53.87
59519;BME280;46994;54.976;73.404;2022-09-21T04:46:23;100859.44;;;20.74;52.89
59519;BME280;46994;54.976;73.404;2022-09-21T04:48:50;100841.00;;;20.76;52.80
59519;BME280;46994;54.976;73.404;2022-09-21T04:51:17;100841.41;;;20.91;52.92
59519;BME280;46994;54.976;73.404;2022-09-21T04:53:44;100831.09;;;20.93;52.47
59519;BME280;46994;54.976;73.404;2022-09-21T04:56:15;100832.69;;;21.01;52.15
59519;BME280;46994;54.976;73.404;2022-09-21T04:58:43;100862.97;;;21.23;51.67
59519;BME280;46994;54.976;73.404;2022-09-21T05:01:16;100854.50;;;21.31;50.69
59519;BME280;46994;54.976;73.404;2022-09-21T05:03:43;100831.72;;;21.25;50.13
59519;BME280;46994;54.976;73.404;2022-09-21T05:06:10;100856.69;;;21.52;50.10
59519;BME280;46994;54.976;73.404;2022-09-21T05:08:38;100838.22;;;21.54;49.22
59519;BME280;46994;54.976;73.404;2022-09-21T05:11:24;100839.88;;;21.67;47.78
59519;BME280;46994;54.976;73.404;2022-09-21T05:13:51;100831.69;;;21.79;47.48
59519;BME280;46994;54.976;73.404;2022-09-21T05:16:18;100837.75;;;21.92;47.89
59519;BME280;46994;54.976;73.404;2022-09-21T05:18:45;100836.47;;;22.07;46.72
59519;BME280;46994;54.976;73.404;2022-09-21T05:21:13;100840.84;;;22.19;45.54
59519;BME280;46994;54.976;73.404;2022-09-21T05:23:40;100835.88;;;22.28;44.97
59519;BME280;46994;54.976;73.404;2022-09-21T05:26:07;100824.69;;;22.29;44.82
59519;BME280;46994;54.976;73.404;2022-09-21T05:28:34;100837.88;;;22.44;44.44
59519;BME280;46994;54.976;73.404;2022-09-21T05:34:32;100838.75;;;22.73;42.60
59519;BME280;46994;54.976;73.404;2022-09-21T05:39:18;100792.38;;;22.78;41.32
59519;BME280;46994;54.976;73.404;2022-09-21T05:41:45;100826.84;;;23.08;40.69
59519;BME280;46994;54.976;73.404;2022-09-21T05:44:13;100809.88;;;23.06;41.64
59519;BME280;46994;54.976;73.404;2022-09-21T05:46:57;100818.44;;;23.26;40.19
59519;BME280;46994;54.976;73.404;2022-09-21T06:41:01;100733.34;;;25.14;35.57
59519;BME280;46994;54.976;73.404;2022-09-21T06:44:19;100744.22;;;25.36;34.59
59519;BME280;46994;54.976;73.404;2022-09-21T06:46:50;100746.28;;;25.56;33.40
59519;BME280;46994;54.976;73.404;2022-09-21T06:49:19;100733.09;;;25.53;33.67
59519;BME280;46994;54.976;73.404;2022-09-21T06:51:49;100751.91;;;25.71;32.23
59519;BME280;46994;54.976;73.404;2022-09-21T06:54:16;100710.69;;;25.66;32.66
59519;BME280;46994;54.976;73.404;2022-09-21T06:56:43;100738.28;;;25.92;31.54
59519;BME280;46994;54.976;73.404;2022-09-21T06:59:10;100738.56;;;25.95;31.85
59519;BME280;46994;54.976;73.404;2022-09-21T07:01:37;100702.53;;;25.82;30.63
59519;BME280;46994;54.976;73.404;2022-09-21T07:04:04;100716.97;;;26.09;30.13
59519;BME280;46994;54.976;73.404;2022-09-21T07:06:34;100740.41;;;26.27;30.63
59519;BME280;46994;54.976;73.404;2022-09-21T07:09:01;100698.59;;;26.20;29.98
59519;BME280;46994;54.976;73.404;2022-09-21T07:11:30;100703.56;;;26.33;30.31
59519;BME280;46994;54.976;73.404;2022-09-21T07:13:57;100714.66;;;26.48;30.43
59519;BME280;46994;54.976;73.404;2022-09-21T07:16:24;100700.59;;;26.45;29.87
59519;BME280;46994;54.976;73.404;2022-09-21T07:18:58;100708.34;;;26.63;30.20
59519;BME280;46994;54.976;73.404;2022-09-21T07:21:31;100710.00;;;26.74;29.79
59519;BME280;46994;54.976;73.404;2022-09-21T07:24:05;100712.22;;;26.82;28.62
59519;BME280;46994;54.976;73.404;2022-09-21T07:26:32;100691.03;;;26.73;28.65
59519;BME280;46994;54.976;73.404;2022-09-21T07:28:59;100705.09;;;26.86;29.18
59519;BME280;46994;54.976;73.404;2022-09-21T07:31:26;100688.59;;;26.76;27.82
59519;BME280;46994;54.976;73.404;2022-09-21T07:33:59;100679.25;;;26.77;27.63
59519;BME280;46994;54.976;73.404;2022-09-21T07:36:26;100694.09;;;26.97;27.90
59519;BME280;46994;54.976;73.404;2022-09-21T07:38:54;100687.47;;;26.93;27.65
59519;BME280;46994;54.976;73.404;2022-09-21T07:41:21;100679.25;;;26.98;28.28
59519;BME280;46994;54.976;73.404;2022-09-21T07:43:48;100690.25;;;27.03;28.75
59519;BME280;46994;54.976;73.404;2022-09-21T07:46:15;100672.09;;;26.97;28.39
59519;BME280;46994;54.976;73.404;2022-09-21T07:48:41;100691.66;;;27.10;28.14
59519;BME280;46994;54.976;73.404;2022-09-21T07:51:10;100692.19;;;27.18;27.83
59519;BME280;46994;54.976;73.404;2022-09-21T07:53:39;100672.66;;;27.09;27.81
59519;BME280;46994;54.976;73.404;2022-09-21T07:56:11;100673.22;;;27.06;27.53
59519;BME280;46994;54.976;73.404;2022-09-21T07:58:38;100689.44;;;27.23;27.79
59519;BME280;46994;54.976;73.404;2022-09-21T08:01:24;100687.25;;;27.25;27.06
59519;BME280;46994;54.976;73.404;2022-09-21T08:03:53;100694.38;;;27.31;27.69
59519;BME280;46994;54.976;73.404;2022-09-21T08:06:20;100663.59;;;27.24;26.80
59519;BME280;46994;54.976;73.404;2022-09-21T08:08:48;100679.81;;;27.25;27.44
59519;BME280;46994;54.976;73.404;2022-09-21T08:11:17;100668.78;;;27.30;27.33
59519;BME280;46994;54.976;73.404;2022-09-21T08:13:45;100654.22;;;27.20;27.20
59519;BME280;46994;54.976;73.404;2022-09-21T08:16:14;100671.81;;;27.29;27.70
59519;BME280;46994;54.976;73.404;2022-09-21T08:18:42;100646.53;;;27.17;27.29
59519;BME280;46994;54.976;73.404;2022-09-21T08:21:10;100663.31;;;27.25;27.04
59519;BME280;46994;54.976;73.404;2022-09-21T08:23:38;100645.16;;;27.14;27.59
59519;BME280;46994;54.976;73.404;2022-09-21T08:26:06;100651.19;;;27.21;27.23
59519;BME280;46994;54.976;73.404;2022-09-21T08:28:34;100639.34;;;27.21;26.80
59519;BME280;46994;54.976;73.404;2022-09-21T08:31:07;100645.97;;;27.25;26.93
59519;BME280;46994;54.976;73.404;2022-09-21T08:33:35;100647.91;;;27.24;26.57
59519;BME280;46994;54.976;73.404;2022-09-21T08:36:03;100642.91;;;27.31;26.53
59519;BME280;46994;54.976;73.404;2022-09-21T08:38:32;100670.16;;;27.38;26.65
59519;BME280;46994;54.976;73.404;2022-09-21T08:41:00;100645.38;;;27.33;26.56
59519;BME280;46994;54.976;73.404;2022-09-21T08:43:34;100655.00;;;27.40;26.04
59519;BME280;46994;54.976;73.404;2022-09-21T08:46:17;100643.19;;;27.35;26.28
59519;BME280;46994;54.976;73.404;2022-09-21T08:51:24;100645.66;;;27.36;25.90
59519;BME280;46994;54.976;73.404;2022-09-21T08:53:56;100646.19;;;27.33;26.46
59519;BME280;46994;54.976;73.404;2022-09-21T08:56:25;100602.19;;;27.13;26.17
59519;BME280;46994;54.976;73.404;2022-09-21T08:58:53;100615.97;;;27.18;26.15
59519;BME280;46994;54.976;73.404;2022-09-21T09:01:24;100652.56;;;27.29;26.42
59519;BME280;46994;54.976;73.404;2022-09-21T09:06:51;100647.59;;;27.26;25.33
59519;BME280;46994;54.976;73.404;2022-09-21T09:09:39;100651.47;;;27.25;25.69
59519;BME280;46994;54.976;73.404;2022-09-21T09:12:20;100645.69;;;27.26;25.32
59519;BME280;46994;54.976;73.404;2022-09-21T09:20:46;100644.03;;;27.25;24.80
59519;BME280;46994;54.976;73.404;2022-09-21T09:23:34;100647.03;;;27.29;24.75
59519;BME280;46994;54.976;73.404;2022-09-21T09:26:41;100634.66;;;27.26;25.29
59519;BME280;46994;54.976;73.404;2022-09-21T09:29:28;100636.31;;;27.22;24.72
59519;BME280;46994;54.976;73.404;2022-09-21T09:31:58;100632.75;;;27.27;24.82
59519;BME280;46994;54.976;73.404;2022-09-21T09:34:35;100628.06;;;27.27;24.46
59519;BME280;46994;54.976;73.404;2022-09-21T09:37:15;100618.72;;;27.13;24.42
59519;BME280;46994;54.976;73.404;2022-09-21T09:39:47;100626.97;;;27.13;25.49
59519;BME280;46994;54.976;73.404;2022-09-21T09:50:25;100632.44;;;25.69;34.48
59519;BME280;46994;54.976;73.404;2022-09-21T09:53:01;100606.22;;;25.41;34.64
59519;BME280;46994;54.976;73.404;2022-09-21T09:55:56;100627.13;;;25.52;33.83
59519;BME280;46994;54.976;73.404;2022-09-21T10:01:03;100613.41;;;25.47;33.13
59519;BME280;46994;54.976;73.404;2022-09-21T10:03:30;100609.50;;;25.38;33.34
59519;BME280;46994;54.976;73.404;2022-09-21T10:05:57;100619.53;;;25.69;32.78
59519;BME280;46994;54.976;73.404;2022-09-21T10:08:39;100613.75;;;25.66;31.09
59519;BME280;46994;54.976;73.404;2022-09-21T10:11:14;100616.16;;;25.52;33.39
59519;BME280;46994;54.976;73.404;2022-09-21T10:13:45;100607.28;;;25.35;33.01
59519;BME280;46994;54.976;73.404;2022-09-21T10:16:20;100603.97;;;25.28;33.38
59519;BME280;46994;54.976;73.404;2022-09-21T10:18:53;100594.25;;;25.15;32.41
59519;BME280;46994;54.976;73.404;2022-09-21T10:21:35;100609.97;;;25.25;32.14
59519;BME280;46994;54.976;73.404;2022-09-21T10:24:12;100610.88;;;25.40;27.95
59519;BME280;46994;54.976;73.404;2022-09-21T10:26:50;100600.91;;;25.71;31.71
59519;BME280;46994;54.976;73.404;2022-09-21T10:32:17;100600.47;;;25.42;32.47
59519;BME280;46994;54.976;73.404;2022-09-21T10:37:35;100591.34;;;25.32;29.63
59519;BME280;46994;54.976;73.404;2022-09-21T10:42:50;100603.38;;;25.26;28.68
59519;BME280;46994;54.976;73.404;2022-09-21T10:45:29;100595.56;;;25.55;27.39
59519;BME280;46994;54.976;73.404;2022-09-21T10:48:14;100595.09;;;25.68;31.29
59519;BME280;46994;54.976;73.404;2022-09-21T10:50:50;100584.50;;;25.34;30.20
59519;BME280;46994;54.976;73.404;2022-09-21T10:53:25;100598.00;;;25.46;31.70
59519;BME280;46994;54.976;73.404;2022-09-21T10:56:02;100583.13;;;25.32;30.89
59519;BME280;46994;54.976;73.404;2022-09-21T10:58:32;100599.25;;;25.23;32.33
59519;BME280;46994;54.976;73.404;2022-09-21T11:01:41;100587.38;;;25.07;31.86
59519;BME280;46994;54.976;73.404;2022-09-21T11:04:16;100573.25;;;24.94;32.05
59519;BME280;46994;54.976;73.404;2022-09-21T11:06:48;100571.03;;;24.91;32.77
59519;BME280;46994;54.976;73.404;2022-09-21T11:09:25;100581.22;;;24.95;31.42
59519;BME280;46994;54.976;73.404;2022-09-21T11:12:04;100571.22;;;25.11;28.90
59519;BME280;46994;54.976;73.404;2022-09-21T11:14:59;100603.25;;;25.48;27.26
59519;BME280;46994;54.976;73.404;2022-09-21T11:23:04;100584.47;;;25.77;27.13
59519;BME280;46994;54.976;73.404;2022-09-21T11:25:42;100584.47;;;25.82;26.78
59519;BME280;46994;54.976;73.404;2022-09-21T11:28:25;100585.31;;;25.87;26.77
59519;BME280;46994;54.976;73.404;2022-09-21T11:36:49;100573.53;;;26.02;26.44
59519;BME280;46994;54.976;73.404;2022-09-21T11:42:20;100574.09;;;25.99;27.33
59519;BME280;46994;54.976;73.404;2022-09-21T11:44:53;100570.50;;;25.98;27.37
59519;BME280;46994;54.976;73.404;2022-09-21T11:56:02;100572.94;;;25.80;28.21
59519;BME280;46994;54.976;73.404;2022-09-21T11:58:39;100570.41;;;25.68;27.57
59519;BME280;46994;54.976;73.404;2022-09-21T12:01:33;100570.63;;;25.61;27.98
59519;BME280;46994;54.976;73.404;2022-09-21T12:10:10;100568.63;;;25.41;28.17
59519;BME280;46994;54.976;73.404;2022-09-21T12:12:50;100554.31;;;25.34;28.52
59519;BME280;46994;54.976;73.404;2022-09-21T12:15:41;100540.53;;;25.19;28.17
59519;BME280;46994;54.976;73.404;2022-09-21T12:18:23;100536.69;;;25.20;27.39
59519;BME280;46994;54.976;73.404;2022-09-21T12:21:18;100532.03;;;25.21;28.06
59519;BME280;46994;54.976;73.404;2022-09-21T12:24:04;100487.31;;;24.73;28.74
59519;BME280;46994;54.976;73.404;2022-09-21T12:26:44;100543.28;;;24.82;30.18
59519;BME280;46994;54.976;73.404;2022-09-21T12:29:25;100556.38;;;24.75;31.01
59519;BME280;46994;54.976;73.404;2022-09-21T12:32:26;100556.22;;;24.54;30.89
59519;BME280;46994;54.976;73.404;2022-09-21T12:35:00;100493.22;;;23.95;31.45
59519;BME280;46994;54.976;73.404;2022-09-21T12:37:36;100556.88;;;24.08;31.85
59519;BME280;46994;54.976;73.404;2022-09-21T12:52:43;100490.88;;;22.73;33.70
59519;BME280;46994;54.976;73.404;2022-09-21T13:01:14;100528.03;;;22.57;34.71
59519;BME280;46994;54.976;73.404;2022-09-21T13:06:51;100551.38;;;22.48;35.75
59519;BME280;46994;54.976;73.404;2022-09-21T13:09:23;100546.34;;;22.23;36.79
59519;BME280;46994;54.976;73.404;2022-09-21T13:12:27;100565.34;;;22.18;36.63
59519;BME280;46994;54.976;73.404;2022-09-21T13:15:25;100550.72;;;21.95;36.27
59519;BME280;46994;54.976;73.404;2022-09-21T13:21:13;100555.81;;;21.63;39.86
59519;BME280;46994;54.976;73.404;2022-09-21T13:23:41;100571.00;;;21.59;38.26
59519;BME280;46994;54.976;73.404;2022-09-21T13:26:10;100549.50;;;21.34;40.22
59519;BME280;46994;54.976;73.404;2022-09-21T13:35:52;100529.13;;;20.78;40.46
59519;BME280;46994;54.976;73.404;2022-09-21T13:47:56;100546.13;;;20.39;43.39
59519;BME280;46994;54.976;73.404;2022-09-21T13:55:02;100493.19;;;19.81;44.30
59519;BME280;46994;54.976;73.404;2022-09-21T14:21:15;100582.31;;;19.67;45.81
59519;BME280;46994;54.976;73.404;2022-09-21T14:26:56;100592.09;;;19.50;47.77
59519;BME280;46994;54.976;73.404;2022-09-21T14:29:47;100590.28;;;19.44;47.62
59519;BME280;46994;54.976;73.404;2022-09-21T14:32:21;100543.03;;;19.08;48.35
59519;BME280;46994;54.976;73.404;2022-09-21T14:34:52;100571.16;;;19.14;48.36
59519;BME280;46994;54.976;73.404;2022-09-21T14:37:35;100585.34;;;19.16;49.23
59519;BME280;46994;54.976;73.404;2022-09-21T14:40:15;100595.38;;;19.15;50.32
59519;BME280;46994;54.976;73.404;2022-09-21T14:42:42;100591.28;;;19.06;50.00
59519;BME280;46994;54.976;73.404;2022-09-21T14:45:17;100569.94;;;18.91;48.20
59519;BME280;46994;54.976;73.404;2022-09-21T14:50:29;100599.53;;;19.00;49.78
59519;BME280;46994;54.976;73.404;2022-09-21T14:59:03;100572.81;;;18.72;49.59
59519;BME280;46994;54.976;73.404;2022-09-21T15:01:37;100590.88;;;18.84;48.28
59519;BME280;46994;54.976;73.404;2022-09-21T15:07:37;100603.06;;;18.75;49.90
59519;BME280;46994;54.976;73.404;2022-09-21T15:10:32;100598.97;;;18.66;49.91
59519;BME280;46994;54.976;73.404;2022-09-21T15:13:37;100604.22;;;18.61;50.31
59519;BME280;46994;54.976;73.404;2022-09-21T15:18:49;100583.69;;;18.40;50.21
59519;BME280;46994;54.976;73.404;2022-09-21T15:21:27;100596.22;;;18.41;49.95
59519;BME280;46994;54.976;73.404;2022-09-21T15:23:55;100609.34;;;18.44;50.05
59519;BME280;46994;54.976;73.404;2022-09-21T15:26:25;100576.53;;;18.21;49.13
59519;BME280;46994;54.976;73.404;2022-09-21T15:28:59;100605.81;;;18.37;50.29
59519;BME280;46994;54.976;73.404;2022-09-21T15:31:34;100617.97;;;18.34;48.28
59519;BME280;46994;54.976;73.404;2022-09-21T15:34:06;100588.91;;;18.10;49.92
59519;BME280;46994;54.976;73.404;2022-09-21T15:36:39;100597.41;;;18.20;50.11
59519;BME280;46994;54.976;73.404;2022-09-21T15:39:23;100609.50;;;18.18;51.90
59519;BME280;46994;54.976;73.404;2022-09-21T15:44:37;100598.34;;;18.01;51.72
59519;BME280;46994;54.976;73.404;2022-09-21T15:47:10;100597.09;;;17.97;53.22
59519;BME280;46994;54.976;73.404;2022-09-21T15:49:41;100604.22;;;17.91;53.50
59519;BME280;46994;54.976;73.404;2022-09-21T15:54:58;100578.03;;;17.72;53.67
59519;BME280;46994;54.976;73.404;2022-09-21T15:57:30;100603.88;;;17.81;53.32
59519;BME280;46994;54.976;73.404;2022-09-21T16:02:42;100614.50;;;17.76;53.74
59519;BME280;46994;54.976;73.404;2022-09-21T16:05:16;100597.00;;;17.65;53.37
59519;BME280;46994;54.976;73.404;2022-09-21T16:07:46;100589.09;;;17.57;54.32
59519;BME280;46994;54.976;73.404;2022-09-21T16:13:27;100606.63;;;17.61;54.39
59519;BME280;46994;54.976;73.404;2022-09-21T16:16:16;100587.28;;;17.44;54.22
59519;BME280;46994;54.976;73.404;2022-09-21T16:18:53;100593.53;;;17.45;55.07
59519;BME280;46994;54.976;73.404;2022-09-21T16:21:32;100587.50;;;17.36;55.41
59519;BME280;46994;54.976;73.404;2022-09-21T16:24:20;100581.09;;;17.24;55.61
59519;BME280;46994;54.976;73.404;2022-09-21T16:27:00;100602.31;;;17.34;55.35
59519;BME280;46994;54.976;73.404;2022-09-21T16:29:38;100597.56;;;17.23;55.25
59519;BME280;46994;54.976;73.404;2022-09-21T16:34:49;100588.00;;;17.13;55.35
59519;BME280;46994;54.976;73.404;2022-09-21T16:39:56;100584.06;;;17.03;56.44
59519;BME280;46994;54.976;73.404;2022-09-21T16:42:26;100608.19;;;17.17;56.24
59519;BME280;46994;54.976;73.404;2022-09-21T16:44:53;100605.28;;;17.06;55.75
59519;BME280;46994;54.976;73.404;2022-09-21T16:47:22;100612.59;;;17.12;55.42
59519;BME280;46994;54.976;73.404;2022-09-21T16:49:54;100585.31;;;16.94;55.91
59519;BME280;46994;54.976;73.404;2022-09-21T16:52:23;100601.34;;;17.02;55.35
59519;BME280;46994;54.976;73.404;2022-09-21T16:54:50;100585.53;;;16.92;54.67
59519;BME280;46994;54.976;73.404;2022-09-21T16:57:17;100599.03;;;16.99;55.46
59519;BME280;46994;54.976;73.404;2022-09-21T16:59:44;100610.31;;;17.02;54.44
59519;BME280;46994;54.976;73.404;2022-09-21T17:02:11;100592.81;;;16.91;55.75
59519;BME280;46994;54.976;73.404;2022-09-21T17:04:39;100601.13;;;16.90;55.23
59519;BME280;46994;54.976;73.404;2022-09-21T17:07:08;100590.09;;;16.78;54.46
59519;BME280;46994;54.976;73.404;2022-09-21T17:09:37;100599.06;;;16.85;55.37
59519;BME280;46994;54.976;73.404;2022-09-21T17:12:06;100582.41;;;16.75;54.13
59519;BME280;46994;54.976;73.404;2022-09-21T17:14:35;100613.22;;;16.87;54.16
59519;BME280;46994;54.976;73.404;2022-09-21T17:17:16;100616.78;;;16.81;55.10
59519;BME280;46994;54.976;73.404;2022-09-21T17:19:44;100622.81;;;16.83;55.89
59519;BME280;46994;54.976;73.404;2022-09-21T17:22:12;100603.22;;;16.75;54.92
59519;BME280;46994;54.976;73.404;2022-09-21T17:24:46;100620.72;;;16.79;54.95
59519;BME280;46994;54.976;73.404;2022-09-21T17:27:13;100592.16;;;16.63;54.94
59519;BME280;46994;54.976;73.404;2022-09-21T17:29:44;100597.16;;;16.59;53.12